sensor_id;sensor_type;location;lat;lon;timestamp;pressure;altitude;pressure_sealevel;temperature;humidity
35489;BME280;21602;55.670;37.578;2023-03-11T00:01:28;98658.28;;;-3.50;60.19
35489;BME280;21602;55.670;37.578;2023-03-11T00:03:54;98658.41;;;-3.52;60.25
35489;BME280;21602;55.670;37.578;2023-03-11T00:06:19;98666.59;;;-3.47;60.39
35489;BME280;21602;55.670;37.578;2023-03-11T00:08:45;98660.56;;;-3.39;59.93
35489;BME280;21602;55.670;37.578;2023-03-11T00:11:11;98662.38;;;-3.40;59.95
35489;BME280;21602;55.670;37.578;2023-03-11T00:13:37;98653.56;;;-3.39;59.63
35489;BME280;21602;55.670;37.578;2023-03-11T00:16:04;98654.38;;;-3.38;59.51
35489;BME280;21602;55.670;37.578;2023-03-11T00:18:32;98651.94;;;-3.40;59.61
35489;BME280;21602;55.670;37.578;2023-03-11T00:20:59;98648.50;;;-3.40;59.46
35489;BME280;21602;55.670;37.578;2023-03-11T00:23:26;98645.06;;;-3.32;59.58
35489;BME280;21602;55.670;37.578;2023-03-11T00:25:52;98646.25;;;-3.27;59.07
35489;BME280;21602;55.670;37.578;2023-03-11T00:28:19;98645.91;;;-3.24;59.24
35489;BME280;21602;55.670;37.578;2023-03-11T00:30:46;98648.03;;;-3.19;58.97
35489;BME280;21602;55.670;37.578;2023-03-11T00:33:14;98638.72;;;-3.22;58.76
35489;BME280;21602;55.670;37.578;2023-03-11T00:35:40;98646.56;;;-3.22;58.99
35489;BME280;21602;55.670;37.578;2023-03-11T00:38:09;98645.56;;;-3.21;59.08
35489;BME280;21602;55.670;37.578;2023-03-11T00:40:38;98652.44;;;-3.20;58.96
35489;BME280;21602;55.670;37.578;2023-03-11T00:43:04;98639.53;;;-3.21;58.76
35489;BME280;21602;55.670;37.578;2023-03-11T00:45:31;98639.88;;;-3.24;58.80
35489;BME280;21602;55.670;37.578;2023-03-11T00:47:57;98641.84;;;-3.26;58.72
35489;BME280;21602;55.670;37.578;2023-03-11T00:50:27;98652.09;;;-3.25;58.64
35489;BME280;21602;55.670;37.578;2023-03-11T00:52:53;98645.09;;;-3.24;58.67
35489;BME280;21602;55.670;37.578;2023-03-11T00:55:22;98641.84;;;-3.26;58.81
35489;BME280;21602;55.670;37.578;2023-03-11T00:57:58;98644.25;;;-3.33;58.71
35489;BME280;21602;55.670;37.578;2023-03-11T01:00:28;98643.63;;;-3.35;58.91
35489;BME280;21602;55.670;37.578;2023-03-11T01:02:55;98640.84;;;-3.33;58.76
35489;BME280;21602;55.670;37.578;2023-03-11T01:05:25;98644.59;;;-3.36;59.28
35489;BME280;21602;55.670;37.578;2023-03-11T01:07:51;98647.69;;;-3.41;59.01
35489;BME280;21602;55.670;37.578;2023-03-11T01:10:17;98641.63;;;-3.49;59.06
35489;BME280;21602;55.670;37.578;2023-03-11T01:12:43;98651.06;;;-3.56;59.42
35489;BME280;21602;55.670;37.578;2023-03-11T01:15:20;98649.13;;;-3.54;59.62
35489;BME280;21602;55.670;37.578;2023-03-11T01:17:47;98648.97;;;-3.53;59.39
35489;BME280;21602;55.670;37.578;2023-03-11T01:20:13;98651.75;;;-3.54;59.53
35489;BME280;21602;55.670;37.578;2023-03-11T01:22:39;98653.69;;;-3.56;59.60
35489;BME280;21602;55.670;37.578;2023-03-11T01:25:05;98647.00;;;-3.59;59.85
35489;BME280;21602;55.670;37.578;2023-03-11T01:27:31;98641.47;;;-3.56;59.70
35489;BME280;21602;55.670;37.578;2023-03-11T01:29:57;98644.56;;;-3.61;59.94
35489;BME280;21602;55.670;37.578;2023-03-11T01:32:23;98643.88;;;-3.71;60.02
35489;BME280;21602;55.670;37.578;2023-03-11T01:34:48;98642.59;;;-3.75;60.07
35489;BME280;21602;55.670;37.578;2023-03-11T01:37:14;98641.91;;;-3.77;60.06
35489;BME280;21602;55.670;37.578;2023-03-11T01:39:40;98640.94;;;-3.76;60.13
35489;BME280;21602;55.670;37.578;2023-03-11T01:42:06;98644.50;;;-3.77;60.41
35489;BME280;21602;55.670;37.578;2023-03-11T01:44:32;98641.25;;;-3.79;60.46
35489;BME280;21602;55.670;37.578;2023-03-11T01:49:30;98639.00;;;-3.74;60.66
35489;BME280;21602;55.670;37.578;2023-03-11T01:52:03;98645.53;;;-3.70;60.57
35489;BME280;21602;55.670;37.578;2023-03-11T01:54:36;98646.69;;;-3.64;60.49
35489;BME280;21602;55.670;37.578;2023-03-11T01:57:06;98637.22;;;-3.65;60.40
35489;BME280;21602;55.670;37.578;2023-03-11T01:59:36;98640.63;;;-3.73;60.69
35489;BME280;21602;55.670;37.578;2023-03-11T02:04:37;98636.53;;;-3.83;61.07
35489;BME280;21602;55.670;37.578;2023-03-11T02:07:06;98637.66;;;-3.86;61.04
35489;BME280;21602;55.670;37.578;2023-03-11T02:09:34;98631.78;;;-3.88;61.29
35489;BME280;21602;55.670;37.578;2023-03-11T02:12:01;98628.84;;;-3.93;61.43
35489;BME280;21602;55.670;37.578;2023-03-11T02:14:29;98637.94;;;-3.97;61.69
35489;BME280;21602;55.670;37.578;2023-03-11T02:16:56;98641.19;;;-4.03;61.91
35489;BME280;21602;55.670;37.578;2023-03-11T02:22:23;98633.47;;;-4.13;62.46
35489;BME280;21602;55.670;37.578;2023-03-11T02:24:58;98634.78;;;-4.17;62.49
35489;BME280;21602;55.670;37.578;2023-03-11T02:27:30;98636.06;;;-4.21;62.79
35489;BME280;21602;55.670;37.578;2023-03-11T02:29:58;98638.50;;;-4.20;62.80
35489;BME280;21602;55.670;37.578;2023-03-11T02:32:25;98637.88;;;-4.22;63.13
35489;BME280;21602;55.670;37.578;2023-03-11T02:34:51;98628.91;;;-4.19;63.23
35489;BME280;21602;55.670;37.578;2023-03-11T02:37:17;98636.59;;;-4.09;63.24
35489;BME280;21602;55.670;37.578;2023-03-11T02:39:52;98629.09;;;-4.13;63.71
35489;BME280;21602;55.670;37.578;2023-03-11T02:42:22;98634.78;;;-4.09;63.61
35489;BME280;21602;55.670;37.578;2023-03-11T02:45:11;98635.47;;;-4.07;64.38
35489;BME280;21602;55.670;37.578;2023-03-11T02:47:39;98635.59;;;-4.08;64.60
35489;BME280;21602;55.670;37.578;2023-03-11T02:50:11;98631.72;;;-4.13;64.92
35489;BME280;21602;55.670;37.578;2023-03-11T02:52:40;98636.09;;;-4.13;65.15
35489;BME280;21602;55.670;37.578;2023-03-11T02:55:06;98643.41;;;-4.17;65.51
35489;BME280;21602;55.670;37.578;2023-03-11T02:57:33;98637.16;;;-4.32;66.59
35489;BME280;21602;55.670;37.578;2023-03-11T02:59:59;98632.25;;;-4.35;66.69
35489;BME280;21602;55.670;37.578;2023-03-11T03:02:31;98633.84;;;-4.42;67.64
35489;BME280;21602;55.670;37.578;2023-03-11T03:04:57;98629.59;;;-4.43;68.01
35489;BME280;21602;55.670;37.578;2023-03-11T03:07:23;98645.06;;;-4.50;68.82
35489;BME280;21602;55.670;37.578;2023-03-11T03:09:48;98637.53;;;-4.53;69.26
35489;BME280;21602;55.670;37.578;2023-03-11T03:12:14;98633.47;;;-4.55;69.82
35489;BME280;21602;55.670;37.578;2023-03-11T03:14:40;98645.16;;;-4.59;70.62
35489;BME280;21602;55.670;37.578;2023-03-11T03:17:06;98631.63;;;-4.63;70.75
35489;BME280;21602;55.670;37.578;2023-03-11T03:19:32;98639.91;;;-4.68;71.79
35489;BME280;21602;55.670;37.578;2023-03-11T03:21:58;98632.91;;;-4.67;71.78
35489;BME280;21602;55.670;37.578;2023-03-11T03:24:24;98639.19;;;-4.78;72.87
35489;BME280;21602;55.670;37.578;2023-03-11T03:26:49;98634.16;;;-4.79;72.72
35489;BME280;21602;55.670;37.578;2023-03-11T03:29:17;98632.66;;;-4.82;73.29
35489;BME280;21602;55.670;37.578;2023-03-11T03:31:43;98642.78;;;-4.79;73.18
35489;BME280;21602;55.670;37.578;2023-03-11T03:34:09;98636.59;;;-4.78;74.21
35489;BME280;21602;55.670;37.578;2023-03-11T03:36:35;98639.53;;;-4.73;73.32
35489;BME280;21602;55.670;37.578;2023-03-11T03:39:03;98641.47;;;-4.75;72.83
35489;BME280;21602;55.670;37.578;2023-03-11T03:41:33;98634.53;;;-4.92;75.08
35489;BME280;21602;55.670;37.578;2023-03-11T03:43:59;98627.72;;;-4.93;76.09
35489;BME280;21602;55.670;37.578;2023-03-11T03:46:28;98631.63;;;-4.89;75.81
35489;BME280;21602;55.670;37.578;2023-03-11T03:48:56;98632.00;;;-4.84;76.32
35489;BME280;21602;55.670;37.578;2023-03-11T03:51:22;98626.78;;;-4.84;76.80
35489;BME280;21602;55.670;37.578;2023-03-11T03:54:07;98626.13;;;-4.86;76.75
35489;BME280;21602;55.670;37.578;2023-03-11T03:56:34;98621.41;;;-4.82;76.75
35489;BME280;21602;55.670;37.578;2023-03-11T03:59:00;98621.13;;;-4.79;76.55
35489;BME280;21602;55.670;37.578;2023-03-11T04:01:33;98620.97;;;-4.78;76.36
35489;BME280;21602;55.670;37.578;2023-03-11T04:03:59;98625.84;;;-4.75;76.41
35489;BME280;21602;55.670;37.578;2023-03-11T04:06:26;98621.63;;;-4.76;76.52
35489;BME280;21602;55.670;37.578;2023-03-11T04:09:04;98615.81;;;-4.70;77.27
35489;BME280;21602;55.670;37.578;2023-03-11T04:11:33;98613.03;;;-4.68;76.41
35489;BME280;21602;55.670;37.578;2023-03-11T04:14:00;98617.44;;;-4.69;76.32
35489;BME280;21602;55.670;37.578;2023-03-11T04:16:27;98613.03;;;-4.68;76.33
35489;BME280;21602;55.670;37.578;2023-03-11T04:19:00;98605.41;;;-4.70;76.48
35489;BME280;21602;55.670;37.578;2023-03-11T04:21:27;98608.13;;;-4.71;76.54
35489;BME280;21602;55.670;37.578;2023-03-11T04:23:54;98592.84;;;-4.74;77.18
35489;BME280;21602;55.670;37.578;2023-03-11T04:26:23;98605.41;;;-4.70;77.36
35489;BME280;21602;55.670;37.578;2023-03-11T04:28:49;98599.56;;;-4.64;77.75
35489;BME280;21602;55.670;37.578;2023-03-11T04:31:15;98591.59;;;-4.62;76.88
35489;BME280;21602;55.670;37.578;2023-03-11T04:33:42;98584.75;;;-4.63;77.64
35489;BME280;21602;55.670;37.578;2023-03-11T04:36:10;98588.81;;;-4.60;77.01
35489;BME280;21602;55.670;37.578;2023-03-11T04:38:41;98573.16;;;-4.69;76.70
35489;BME280;21602;55.670;37.578;2023-03-11T04:41:09;98579.94;;;-4.76;77.17
35489;BME280;21602;55.670;37.578;2023-03-11T04:43:38;98577.22;;;-4.74;77.34
35489;BME280;21602;55.670;37.578;2023-03-11T04:46:04;98568.94;;;-4.70;76.74
35489;BME280;21602;55.670;37.578;2023-03-11T04:48:30;98581.91;;;-4.78;77.29
35489;BME280;21602;55.670;37.578;2023-03-11T04:50:56;98578.03;;;-4.74;76.83
35489;BME280;21602;55.670;37.578;2023-03-11T04:53:23;98576.38;;;-4.75;77.22
35489;BME280;21602;55.670;37.578;2023-03-11T04:55:49;98573.13;;;-4.77;77.54
35489;BME280;21602;55.670;37.578;2023-03-11T04:58:15;98571.50;;;-4.78;77.08
35489;BME280;21602;55.670;37.578;2023-03-11T05:00:42;98567.72;;;-4.83;77.08
35489;BME280;21602;55.670;37.578;2023-03-11T05:03:11;98560.72;;;-4.83;78.24
35489;BME280;21602;55.670;37.578;2023-03-11T05:05:38;98574.75;;;-4.76;76.99
35489;BME280;21602;55.670;37.578;2023-03-11T05:08:04;98568.06;;;-4.78;77.08
35489;BME280;21602;55.670;37.578;2023-03-11T05:10:31;98564.97;;;-4.82;77.36
35489;BME280;21602;55.670;37.578;2023-03-11T05:12:59;98568.22;;;-4.80;77.74
35489;BME280;21602;55.670;37.578;2023-03-11T05:15:30;98557.19;;;-4.74;77.63
35489;BME280;21602;55.670;37.578;2023-03-11T05:18:00;98562.06;;;-4.71;77.44
35489;BME280;21602;55.670;37.578;2023-03-11T05:20:26;98566.97;;;-4.68;78.21
35489;BME280;21602;55.670;37.578;2023-03-11T05:22:51;98560.97;;;-4.68;77.73
35489;BME280;21602;55.670;37.578;2023-03-11T05:25:17;98561.44;;;-4.73;77.55
35489;BME280;21602;55.670;37.578;2023-03-11T05:27:44;98561.88;;;-4.77;77.64
35489;BME280;21602;55.670;37.578;2023-03-11T05:30:11;98563.22;;;-4.73;77.72
35489;BME280;21602;55.670;37.578;2023-03-11T05:32:38;98561.25;;;-4.71;77.86
35489;BME280;21602;55.670;37.578;2023-03-11T05:35:06;98565.03;;;-4.66;77.91
35489;BME280;21602;55.670;37.578;2023-03-11T05:37:32;98564.25;;;-4.58;78.07
35489;BME280;21602;55.670;37.578;2023-03-11T05:40:01;98559.72;;;-4.48;77.83
35489;BME280;21602;55.670;37.578;2023-03-11T05:42:30;98558.75;;;-4.47;77.28
35489;BME280;21602;55.670;37.578;2023-03-11T05:44:57;98562.22;;;-4.46;77.25
35489;BME280;21602;55.670;37.578;2023-03-11T05:47:24;98561.53;;;-4.48;77.30
35489;BME280;21602;55.670;37.578;2023-03-11T05:49:50;98558.88;;;-4.56;77.52
35489;BME280;21602;55.670;37.578;2023-03-11T05:52:18;98562.00;;;-4.53;77.54
35489;BME280;21602;55.670;37.578;2023-03-11T05:54:44;98556.31;;;-4.48;77.56
35489;BME280;21602;55.670;37.578;2023-03-11T05:57:10;98562.03;;;-4.45;77.75
35489;BME280;21602;55.670;37.578;2023-03-11T05:59:36;98557.50;;;-4.34;77.90
35489;BME280;21602;55.670;37.578;2023-03-11T06:02:04;98551.97;;;-4.40;77.43
35489;BME280;21602;55.670;37.578;2023-03-11T06:04:30;98552.31;;;-4.34;77.82
35489;BME280;21602;55.670;37.578;2023-03-11T06:06:59;98552.97;;;-4.24;77.92
35489;BME280;21602;55.670;37.578;2023-03-11T06:09:28;98551.84;;;-4.14;77.54
35489;BME280;21602;55.670;37.578;2023-03-11T06:11:54;98558.72;;;-4.04;77.44
35489;BME280;21602;55.670;37.578;2023-03-11T06:14:23;98546.69;;;-3.97;76.98
35489;BME280;21602;55.670;37.578;2023-03-11T06:16:50;98552.91;;;-3.98;76.81
35489;BME280;21602;55.670;37.578;2023-03-11T06:19:19;98549.44;;;-3.99;76.83
35489;BME280;21602;55.670;37.578;2023-03-11T06:21:48;98555.84;;;-3.93;76.72
35489;BME280;21602;55.670;37.578;2023-03-11T06:24:16;98557.78;;;-3.87;76.44
35489;BME280;21602;55.670;37.578;2023-03-11T06:26:42;98546.38;;;-3.86;76.07
35489;BME280;21602;55.670;37.578;2023-03-11T06:29:13;98546.69;;;-3.81;75.88
35489;BME280;21602;55.670;37.578;2023-03-11T06:31:41;98548.81;;;-3.76;75.87
35489;BME280;21602;55.670;37.578;2023-03-11T06:34:10;98546.06;;;-3.83;75.75
35489;BME280;21602;55.670;37.578;2023-03-11T06:36:36;98539.03;;;-3.91;77.54
35489;BME280;21602;55.670;37.578;2023-03-11T06:39:03;98541.16;;;-3.86;76.35
35489;BME280;21602;55.670;37.578;2023-03-11T06:41:32;98533.31;;;-3.94;76.96
35489;BME280;21602;55.670;37.578;2023-03-11T06:43:59;98544.75;;;-4.03;76.38
35489;BME280;21602;55.670;37.578;2023-03-11T06:46:26;98531.03;;;-4.05;76.52
35489;BME280;21602;55.670;37.578;2023-03-11T06:48:53;98530.03;;;-4.04;76.70
35489;BME280;21602;55.670;37.578;2023-03-11T06:51:23;98545.88;;;-3.98;76.84
35489;BME280;21602;55.670;37.578;2023-03-11T06:53:51;98538.53;;;-3.94;76.85
35489;BME280;21602;55.670;37.578;2023-03-11T06:56:20;98539.53;;;-3.87;76.78
35489;BME280;21602;55.670;37.578;2023-03-11T06:58:52;98535.63;;;-3.83;76.56
35489;BME280;21602;55.670;37.578;2023-03-11T07:01:23;98520.00;;;-3.75;76.99
35489;BME280;21602;55.670;37.578;2023-03-11T07:03:52;98528.31;;;-3.79;76.73
35489;BME280;21602;55.670;37.578;2023-03-11T07:06:24;98530.25;;;-3.73;76.87
35489;BME280;21602;55.670;37.578;2023-03-11T07:08:54;98523.75;;;-3.69;77.24
35489;BME280;21602;55.670;37.578;2023-03-11T07:11:25;98516.75;;;-3.61;77.13
35489;BME280;21602;55.670;37.578;2023-03-11T07:13:55;98515.91;;;-3.53;76.55
35489;BME280;21602;55.670;37.578;2023-03-11T07:16:24;98509.22;;;-3.47;76.80
35489;BME280;21602;55.670;37.578;2023-03-11T07:18:56;98511.50;;;-3.36;76.28
35489;BME280;21602;55.670;37.578;2023-03-11T07:21:24;98502.38;;;-3.40;75.99
35489;BME280;21602;55.670;37.578;2023-03-11T07:23:54;98502.03;;;-3.45;76.23
35489;BME280;21602;55.670;37.578;2023-03-11T07:26:20;98507.41;;;-3.47;76.13
35489;BME280;21602;55.670;37.578;2023-03-11T07:28:46;98502.19;;;-3.39;76.57
35489;BME280;21602;55.670;37.578;2023-03-11T07:31:16;98507.22;;;-3.29;76.31
35489;BME280;21602;55.670;37.578;2023-03-11T07:33:43;98493.06;;;-3.26;75.69
35489;BME280;21602;55.670;37.578;2023-03-11T07:36:14;98496.59;;;-3.19;75.86
35489;BME280;21602;55.670;37.578;2023-03-11T07:38:41;98487.28;;;-3.14;75.39
35489;BME280;21602;55.670;37.578;2023-03-11T07:41:08;98474.88;;;-3.03;75.23
35489;BME280;21602;55.670;37.578;2023-03-11T07:43:35;98467.38;;;-2.98;75.25
35489;BME280;21602;55.670;37.578;2023-03-11T07:46:14;98464.75;;;-2.98;75.23
35489;BME280;21602;55.670;37.578;2023-03-11T07:48:49;98458.34;;;-2.96;75.44
35489;BME280;21602;55.670;37.578;2023-03-11T07:53:44;98448.72;;;-2.95;75.55
35489;BME280;21602;55.670;37.578;2023-03-11T07:56:12;98435.66;;;-2.95;75.67
35489;BME280;21602;55.670;37.578;2023-03-11T07:58:39;98440.97;;;-3.12;75.99
35489;BME280;21602;55.670;37.578;2023-03-11T08:01:11;98439.19;;;-3.19;76.31
35489;BME280;21602;55.670;37.578;2023-03-11T08:03:37;98430.09;;;-3.31;76.76
35489;BME280;21602;55.670;37.578;2023-03-11T08:06:31;98437.75;;;-3.38;77.49
35489;BME280;21602;55.670;37.578;2023-03-11T08:08:59;98419.50;;;-3.38;77.77
35489;BME280;21602;55.670;37.578;2023-03-11T08:11:29;98426.19;;;-3.27;78.09
35489;BME280;21602;55.670;37.578;2023-03-11T08:13:54;98419.09;;;-3.19;77.94
35489;BME280;21602;55.670;37.578;2023-03-11T08:16:23;98417.47;;;-3.20;77.80
35489;BME280;21602;55.670;37.578;2023-03-11T08:18:50;98412.25;;;-3.20;77.99
35489;BME280;21602;55.670;37.578;2023-03-11T08:21:24;98416.47;;;-3.11;78.61
35489;BME280;21602;55.670;37.578;2023-03-11T08:23:51;98405.03;;;-3.01;77.85
35489;BME280;21602;55.670;37.578;2023-03-11T08:26:21;98409.91;;;-2.98;77.80
35489;BME280;21602;55.670;37.578;2023-03-11T08:28:50;98395.09;;;-3.06;77.37
35489;BME280;21602;55.670;37.578;2023-03-11T08:31:16;98400.81;;;-3.11;77.58
35489;BME280;21602;55.670;37.578;2023-03-11T08:33:45;98384.81;;;-3.07;77.37
35489;BME280;21602;55.670;37.578;2023-03-11T08:36:12;98388.03;;;-2.97;77.08
35489;BME280;21602;55.670;37.578;2023-03-11T08:38:38;98385.69;;;-2.84;76.89
35489;BME280;21602;55.670;37.578;2023-03-11T08:41:04;98388.94;;;-2.82;75.70
35489;BME280;21602;55.670;37.578;2023-03-11T08:43:30;98391.53;;;-2.51;75.85
35489;BME280;21602;55.670;37.578;2023-03-11T08:45:59;98381.19;;;-2.44;75.43
35489;BME280;21602;55.670;37.578;2023-03-11T08:48:29;98395.25;;;-2.45;75.03
35489;BME280;21602;55.670;37.578;2023-03-11T08:50:55;98405.78;;;-2.62;75.18
35489;BME280;21602;55.670;37.578;2023-03-11T08:53:24;98399.75;;;-2.62;76.05
35489;BME280;21602;55.670;37.578;2023-03-11T08:56:05;98390.84;;;-2.76;75.80
35489;BME280;21602;55.670;37.578;2023-03-11T08:58:35;98398.09;;;-2.86;76.05
35489;BME280;21602;55.670;37.578;2023-03-11T09:01:01;98379.13;;;-2.80;76.65
35489;BME280;21602;55.670;37.578;2023-03-11T09:03:32;98383.69;;;-2.82;76.85
35489;BME280;21602;55.670;37.578;2023-03-11T09:06:04;98371.50;;;-2.90;77.39
35489;BME280;21602;55.670;37.578;2023-03-11T09:08:30;98377.63;;;-3.05;78.53
35489;BME280;21602;55.670;37.578;2023-03-11T09:10:59;98383.38;;;-3.18;79.57
35489;BME280;21602;55.670;37.578;2023-03-11T09:13:25;98362.81;;;-3.13;80.27
35489;BME280;21602;55.670;37.578;2023-03-11T09:15:51;98361.44;;;-3.32;80.69
35489;BME280;21602;55.670;37.578;2023-03-11T09:18:17;98358.13;;;-3.26;80.20
35489;BME280;21602;55.670;37.578;2023-03-11T09:20:44;98355.19;;;-3.23;80.47
35489;BME280;21602;55.670;37.578;2023-03-11T09:23:11;98347.31;;;-3.15;80.52
35489;BME280;21602;55.670;37.578;2023-03-11T09:25:38;98345.44;;;-2.98;79.93
35489;BME280;21602;55.670;37.578;2023-03-11T09:32:31;98356.59;;;-2.81;78.87
35489;BME280;21602;55.670;37.578;2023-03-11T09:34:57;98365.41;;;-2.82;78.77
35489;BME280;21602;55.670;37.578;2023-03-11T09:37:24;98351.66;;;-2.76;79.02
35489;BME280;21602;55.670;37.578;2023-03-11T09:39:52;98347.47;;;-2.85;78.81
35489;BME280;21602;55.670;37.578;2023-03-11T09:44:50;98347.53;;;-2.93;79.11
35489;BME280;21602;55.670;37.578;2023-03-11T09:55:49;98327.03;;;-3.04;79.59
35489;BME280;21602;55.670;37.578;2023-03-11T10:00:43;98308.81;;;-3.13;79.21
35489;BME280;21602;55.670;37.578;2023-03-11T10:03:27;98300.91;;;-3.04;79.34
35489;BME280;21602;55.670;37.578;2023-03-11T10:06:02;98305.78;;;-3.01;79.10
35489;BME280;21602;55.670;37.578;2023-03-11T10:08:53;98288.81;;;-2.97;78.90
35489;BME280;21602;55.670;37.578;2023-03-11T10:11:26;98293.50;;;-2.93;78.49
35489;BME280;21602;55.670;37.578;2023-03-11T10:22:34;98275.28;;;-3.01;78.24
35489;BME280;21602;55.670;37.578;2023-03-11T10:25:15;98266.34;;;-3.06;78.53
35489;BME280;21602;55.670;37.578;2023-03-11T10:27:56;98247.63;;;-3.18;78.63
35489;BME280;21602;55.670;37.578;2023-03-11T10:30:31;98254.50;;;-3.17;79.05
35489;BME280;21602;55.670;37.578;2023-03-11T10:35:42;98239.91;;;-3.03;79.30
35489;BME280;21602;55.670;37.578;2023-03-11T10:38:17;98236.53;;;-2.89;78.99
35489;BME280;21602;55.670;37.578;2023-03-11T10:40:46;98228.28;;;-3.01;78.41
35489;BME280;21602;55.670;37.578;2023-03-11T10:43:16;98224.09;;;-3.10;79.26
35489;BME280;21602;55.670;37.578;2023-03-11T10:45:43;98224.22;;;-3.03;78.82
35489;BME280;21602;55.670;37.578;2023-03-11T10:48:14;98214.06;;;-2.98;78.52
35489;BME280;21602;55.670;37.578;2023-03-11T10:53:15;98206.31;;;-2.69;78.55
35489;BME280;21602;55.670;37.578;2023-03-11T10:55:52;98200.84;;;-2.59;78.13
35489;BME280;21602;55.670;37.578;2023-03-11T10:58:25;98195.88;;;-2.54;78.79
35489;BME280;21602;55.670;37.578;2023-03-11T11:01:15;98203.25;;;-2.58;78.31
35489;BME280;21602;55.670;37.578;2023-03-11T11:03:46;98192.19;;;-2.60;78.21
35489;BME280;21602;55.670;37.578;2023-03-11T11:06:28;98191.72;;;-2.63;78.41
35489;BME280;21602;55.670;37.578;2023-03-11T11:09:16;98185.16;;;-2.59;78.03
35489;BME280;21602;55.670;37.578;2023-03-11T11:12:18;98177.50;;;-2.61;77.79
35489;BME280;21602;55.670;37.578;2023-03-11T11:14:51;98179.25;;;-2.76;77.97
35489;BME280;21602;55.670;37.578;2023-03-11T11:17:26;98180.53;;;-2.72;78.33
35489;BME280;21602;55.670;37.578;2023-03-11T11:19:57;98164.38;;;-2.90;78.49
35489;BME280;21602;55.670;37.578;2023-03-11T11:22:24;98169.75;;;-3.06;80.05
35489;BME280;21602;55.670;37.578;2023-03-11T11:24:54;98157.91;;;-2.94;80.01
35489;BME280;21602;55.670;37.578;2023-03-11T11:27:23;98162.69;;;-2.83;79.33
35489;BME280;21602;55.670;37.578;2023-03-11T11:30:21;98160.88;;;-2.83;79.12
35489;BME280;21602;55.670;37.578;2023-03-11T11:32:47;98148.91;;;-2.77;79.49
35489;BME280;21602;55.670;37.578;2023-03-11T11:35:16;98149.03;;;-2.70;79.08
35489;BME280;21602;55.670;37.578;2023-03-11T11:37:51;98146.78;;;-2.59;79.11
35489;BME280;21602;55.670;37.578;2023-03-11T11:40:26;98143.91;;;-2.49;78.77
35489;BME280;21602;55.670;37.578;2023-03-11T11:42:56;98137.50;;;-2.46;78.84
35489;BME280;21602;55.670;37.578;2023-03-11T11:47:58;98137.25;;;-2.51;78.84
35489;BME280;21602;55.670;37.578;2023-03-11T11:50:30;98130.47;;;-2.61;78.72
35489;BME280;21602;55.670;37.578;2023-03-11T11:55:55;98138.22;;;-2.52;79.23
35489;BME280;21602;55.670;37.578;2023-03-11T11:58:21;98137.31;;;-2.60;79.00
35489;BME280;21602;55.670;37.578;2023-03-11T12:06:30;98125.59;;;-2.64;79.26
35489;BME280;21602;55.670;37.578;2023-03-11T12:09:09;98125.59;;;-2.64;79.07
35489;BME280;21602;55.670;37.578;2023-03-11T12:14:48;98121.09;;;-2.70;79.41
35489;BME280;21602;55.670;37.578;2023-03-11T12:17:22;98106.59;;;-2.72;79.37
35489;BME280;21602;55.670;37.578;2023-03-11T12:20:14;98099.13;;;-2.61;79.36
35489;BME280;21602;55.670;37.578;2023-03-11T12:28:33;98101.28;;;-2.49;79.12
35489;BME280;21602;55.670;37.578;2023-03-11T12:31:05;98097.31;;;-2.45;79.00
35489;BME280;21602;55.670;37.578;2023-03-11T12:33:41;98097.75;;;-2.57;78.93
35489;BME280;21602;55.670;37.578;2023-03-11T12:36:42;98101.09;;;-2.63;79.39
35489;BME280;21602;55.670;37.578;2023-03-11T12:39:31;98092.63;;;-2.65;79.54
35489;BME280;21602;55.670;37.578;2023-03-11T12:44:37;98086.31;;;-2.41;79.35
35489;BME280;21602;55.670;37.578;2023-03-11T12:49:46;98084.31;;;-2.39;79.11
35489;BME280;21602;55.670;37.578;2023-03-11T12:58:06;98093.25;;;-2.33;79.47
35489;BME280;21602;55.670;37.578;2023-03-11T13:02:03;98072.22;;;-2.25;79.36
35489;BME280;21602;55.670;37.578;2023-03-11T13:04:30;98073.13;;;-2.18;78.71
35489;BME280;21602;55.670;37.578;2023-03-11T13:07:16;98074.56;;;-2.15;78.72
35489;BME280;21602;55.670;37.578;2023-03-11T13:12:53;98059.41;;;-2.20;78.74
35489;BME280;21602;55.670;37.578;2023-03-11T13:18:12;98047.88;;;-2.11;78.61
35489;BME280;21602;55.670;37.578;2023-03-11T13:34:17;98023.31;;;-2.10;79.11
35489;BME280;21602;55.670;37.578;2023-03-11T13:42:43;98015.13;;;-2.07;79.27
35489;BME280;21602;55.670;37.578;2023-03-11T13:45:26;97997.25;;;-2.03;79.29
35489;BME280;21602;55.670;37.578;2023-03-11T13:48:43;98000.44;;;-2.08;79.34
35489;BME280;21602;55.670;37.578;2023-03-11T13:50:47;97987.97;;;-2.06;79.39
35489;BME280;21602;55.670;37.578;2023-03-11T13:56:56;97987.66;;;-2.17;80.21
35489;BME280;21602;55.670;37.578;2023-03-11T13:59:31;97985.47;;;-2.14;81.52
35489;BME280;21602;55.670;37.578;2023-03-11T14:02:03;97984.09;;;-2.10;80.97
35489;BME280;21602;55.670;37.578;2023-03-11T14:04:37;97978.31;;;-2.05;80.86
35489;BME280;21602;55.670;37.578;2023-03-11T14:07:32;97973.53;;;-2.01;80.95
35489;BME280;21602;55.670;37.578;2023-03-11T14:10:23;97980.78;;;-2.03;81.10
35489;BME280;21602;55.670;37.578;2023-03-11T14:12:49;97981.06;;;-2.13;81.13
35489;BME280;21602;55.670;37.578;2023-03-11T14:15:22;97978.06;;;-2.10;81.42
35489;BME280;21602;55.670;37.578;2023-03-11T14:17:50;97979.53;;;-2.08;81.55
35489;BME280;21602;55.670;37.578;2023-03-11T14:20:19;97964.06;;;-2.02;81.59
35489;BME280;21602;55.670;37.578;2023-03-11T14:22:48;97964.31;;;-1.97;81.44
35489;BME280;21602;55.670;37.578;2023-03-11T14:25:19;97959.28;;;-1.99;81.62
35489;BME280;21602;55.670;37.578;2023-03-11T14:27:50;97952.25;;;-1.98;81.80
35489;BME280;21602;55.670;37.578;2023-03-11T14:30:20;97942.41;;;-1.96;81.64
35489;BME280;21602;55.670;37.578;2023-03-11T14:33:19;97936.56;;;-1.98;81.81
35489;BME280;21602;55.670;37.578;2023-03-11T14:35:54;97933.13;;;-1.99;82.26
35489;BME280;21602;55.670;37.578;2023-03-11T14:38:24;97935.19;;;-1.94;82.29
35489;BME280;21602;55.670;37.578;2023-03-11T14:40:58;97936.03;;;-1.87;82.53
35489;BME280;21602;55.670;37.578;2023-03-11T14:43:33;97927.81;;;-1.84;81.95
35489;BME280;21602;55.670;37.578;2023-03-11T14:46:02;97919.16;;;-1.85;82.33
35489;BME280;21602;55.670;37.578;2023-03-11T14:48:39;97921.59;;;-1.83;82.09